Time;durP1;ratioP1;P1;durP2;ratioP2;P2;SDS_P1;SDS_P2;PMS_P1;PMS_P2;Temp;Humidity;BMP_temperature;BMP_pressure;BME280_temperature;BME280_humidity;BME280_pressure;Samples;Min_cycle;Max_cycle;Signal;HPM_P1;HPM_P2
2022/05/08 00:00:01;;;;;;;41.07;27.87;;;12.90;99.90;;;;;;5094559;28;20235;-85
2022/05/08 00:02:28;;;;;;;42.33;27.60;;;12.90;99.90;;;;;;5093971;28;20213;-85
2022/05/08 00:04:54;;;;;;;41.20;26.97;;;12.80;99.90;;;;;;5094135;28;20213;-82
2022/05/08 00:07:24;;;;;;;34.63;25.47;;;12.70;99.90;;;;;;5094314;28;20623;-84
2022/05/08 00:09:51;;;;;;;36.93;25.03;;;12.70;99.90;;;;;;5094480;28;20209;-85
2022/05/08 00:12:19;;;;;;;32.60;25.17;;;12.80;99.90;;;;;;5094128;28;20207;-83
2022/05/08 00:14:47;;;;;;;32.63;24.17;;;12.70;99.90;;;;;;5094185;28;20198;-85
2022/05/08 00:17:17;;;;;;;33.40;23.77;;;12.60;99.90;;;;;;5093934;28;20210;-86
2022/05/08 00:19:47;;;;;;;29.53;23.27;;;12.50;99.90;;;;;;5094539;28;20214;-84
2022/05/08 00:22:14;;;;;;;33.53;23.63;;;12.50;99.90;;;;;;5093865;28;20690;-86
2022/05/08 00:24:42;;;;;;;31.13;22.47;;;12.50;99.90;;;;;;5094261;28;20597;-84
2022/05/08 00:27:09;;;;;;;33.13;22.73;;;12.40;99.90;;;;;;5094003;28;20211;-84
2022/05/08 00:29:37;;;;;;;28.20;20.77;;;12.40;99.90;;;;;;5094068;28;20203;-85
2022/05/08 00:32:04;;;;;;;32.20;21.93;;;12.40;99.90;;;;;;5092381;28;20202;-84
2022/05/08 00:34:32;;;;;;;25.37;20.50;;;12.40;99.90;;;;;;5094091;28;20281;-84
2022/05/08 00:37:00;;;;;;;30.00;20.67;;;12.50;99.90;;;;;;5093726;28;20558;-84
2022/05/08 00:39:28;;;;;;;27.97;20.60;;;12.50;99.90;;;;;;5093627;28;20259;-84
2022/05/08 00:41:55;;;;;;;26.87;19.33;;;12.50;99.90;;;;;;5091589;28;20250;-85
2022/05/08 00:44:22;;;;;;;24.87;18.90;;;12.40;99.90;;;;;;5078674;28;20223;-83
2022/05/08 00:46:51;;;;;;;24.97;17.50;;;12.40;99.90;;;;;;5072498;28;20219;-83
2022/05/08 00:49:18;;;;;;;26.57;17.87;;;12.30;99.90;;;;;;5076502;28;20195;-85
2022/05/08 00:51:49;;;;;;;25.00;17.67;;;12.40;99.90;;;;;;5079370;28;20207;-84
2022/05/08 00:54:17;;;;;;;21.10;16.23;;;12.30;99.90;;;;;;5079276;28;20192;-84
2022/05/08 00:56:45;;;;;;;21.23;16.67;;;12.40;99.90;;;;;;5080807;28;20217;-83
2022/05/08 00:59:12;;;;;;;20.77;16.00;;;12.50;99.90;;;;;;5075283;28;20207;-86
2022/05/08 01:01:39;;;;;;;20.43;15.53;;;12.40;99.90;;;;;;5087262;28;20232;-85
2022/05/08 01:04:06;;;;;;;19.63;15.53;;;12.40;99.90;;;;;;5083050;28;20205;-87
2022/05/08 01:06:33;;;;;;;18.63;14.90;;;12.40;99.90;;;;;;5075956;28;20642;-86
2022/05/08 01:09:01;;;;;;;22.83;14.93;;;12.40;99.90;;;;;;5075688;28;20208;-86
2022/05/08 01:11:29;;;;;;;17.30;13.73;;;12.50;99.90;;;;;;5075329;28;20207;-87
2022/05/08 01:13:56;;;;;;;17.53;13.90;;;12.40;99.90;;;;;;5076862;28;20327;-86
2022/05/08 01:16:23;;;;;;;15.47;12.73;;;12.50;99.90;;;;;;5077576;28;20203;-87
2022/05/08 01:18:51;;;;;;;17.87;13.27;;;12.50;99.90;;;;;;5078287;28;20210;-85
2022/05/08 01:21:23;;;;;;;15.10;12.43;;;12.50;99.90;;;;;;5080689;28;20199;-87
2022/05/08 01:23:51;;;;;;;16.40;14.65;;;12.40;99.90;;;;;;5079901;28;20444;-85
2022/05/08 01:26:24;;;;;;;16.30;13.00;;;12.50;99.90;;;;;;5078293;28;20669;-86
2022/05/08 01:28:57;;;;;;;14.93;12.03;;;12.50;99.90;;;;;;5077920;28;20227;-87
2022/05/08 01:31:26;;;;;;;15.43;12.67;;;12.50;99.90;;;;;;5078073;28;20199;-86
2022/05/08 01:33:53;;;;;;;15.13;11.43;;;12.50;99.90;;;;;;5078301;28;20207;-87
2022/05/08 01:36:20;;;;;;;14.37;12.37;;;12.50;99.90;;;;;;5079726;28;20231;-87
2022/05/08 01:38:47;;;;;;;14.47;11.37;;;12.50;99.90;;;;;;5078062;28;20207;-87
2022/05/08 01:41:15;;;;;;;13.37;12.00;;;12.50;99.90;;;;;;5077892;28;20207;-85
2022/05/08 01:43:42;;;;;;;14.47;11.17;;;12.50;99.90;;;;;;5076796;28;20233;-85
2022/05/08 01:46:09;;;;;;;13.93;10.90;;;12.50;99.90;;;;;;5077422;28;20217;-85
2022/05/08 01:48:35;;;;;;;15.03;11.10;;;12.60;99.90;;;;;;5077182;28;20196;-86
2022/05/08 01:51:05;;;;;;;14.20;11.47;;;12.60;99.90;;;;;;5077368;28;20291;-86
2022/05/08 01:53:33;;;;;;;15.90;11.50;;;12.80;99.90;;;;;;5077172;28;20214;-86
2022/05/08 01:56:07;;;;;;;16.87;11.70;;;12.70;99.90;;;;;;5077059;28;20215;-85
2022/05/08 01:58:35;;;;;;;15.17;11.07;;;12.60;99.90;;;;;;5076950;28;20300;-84
2022/05/08 02:01:05;;;;;;;13.63;11.00;;;12.60;99.90;;;;;;5076558;28;20265;-84
2022/05/08 02:03:32;;;;;;;14.53;10.40;;;12.70;99.90;;;;;;5076783;28;20336;-85
2022/05/08 02:06:02;;;;;;;14.17;10.10;;;12.70;99.90;;;;;;5077130;28;20209;-85
2022/05/08 02:08:29;;;;;;;14.93;10.83;;;12.70;99.90;;;;;;5076927;28;20204;-84
2022/05/08 02:10:56;;;;;;;13.83;10.63;;;12.80;99.90;;;;;;5076512;28;20200;-84
2022/05/08 02:13:24;;;;;;;13.90;12.32;;;12.80;99.90;;;;;;5074562;28;20423;-86
2022/05/08 02:15:53;;;;;;;13.90;10.67;;;13.00;99.90;;;;;;5076925;28;20201;-86
2022/05/08 02:18:20;;;;;;;11.20;9.87;;;13.10;99.90;;;;;;5077346;28;20196;-86
2022/05/08 02:20:48;;;;;;;13.70;10.50;;;13.10;99.90;;;;;;5076732;28;20197;-85
2022/05/08 02:23:17;;;;;;;10.97;9.77;;;13.00;99.90;;;;;;5076551;28;20687;-86
2022/05/08 02:25:45;;;;;;;11.03;9.77;;;12.90;99.90;;;;;;5076620;28;20197;-85
2022/05/08 02:28:11;;;;;;;13.10;9.47;;;13.00;99.90;;;;;;5076312;28;20215;-85
2022/05/08 02:30:39;;;;;;;10.93;9.83;;;12.90;99.90;;;;;;5076027;28;20749;-85
2022/05/08 02:33:08;;;;;;;12.13;9.57;;;12.80;99.90;;;;;;5076052;28;20193;-85
2022/05/08 02:35:36;;;;;;;12.47;9.70;;;12.70;99.90;;;;;;5076653;28;20213;-85
2022/05/08 02:38:03;;;;;;;12.80;11.50;;;12.70;99.90;;;;;;5075304;28;20424;-85
2022/05/08 02:40:29;;;;;;;12.67;10.80;;;12.70;99.90;;;;;;5075800;28;20584;-85
2022/05/08 02:42:56;;;;;;;11.37;9.40;;;12.90;99.90;;;;;;5075811;28;20228;-86
2022/05/08 02:45:24;;;;;;;11.17;9.17;;;12.80;99.90;;;;;;5076100;28;20197;-86
2022/05/08 02:47:51;;;;;;;11.60;9.93;;;12.60;99.90;;;;;;5076624;28;20243;-86
2022/05/08 02:50:21;;;;;;;11.57;9.77;;;12.60;99.90;;;;;;5075694;28;20199;-85
2022/05/08 02:52:49;;;;;;;12.87;10.00;;;12.50;99.90;;;;;;5076488;28;20194;-83
2022/05/08 03:00:52;;;;;;;10.40;9.03;;;12.80;99.90;;;;;;5064984;28;20315;-86
2022/05/08 03:03:19;;;;;;;12.27;9.73;;;12.70;99.90;;;;;;5075664;28;20217;-86
2022/05/08 03:05:48;;;;;;;12.40;10.53;;;12.70;99.90;;;;;;5075706;28;20667;-86
2022/05/08 03:08:17;;;;;;;15.43;10.20;;;12.70;99.90;;;;;;5076734;28;20212;-84
2022/05/08 03:13:31;;;;;;;13.47;11.27;;;12.80;99.90;;;;;;5075750;28;20193;-87
2022/05/08 03:16:00;;;;;;;14.33;9.93;;;12.80;99.90;;;;;;5075883;28;20220;-86
2022/05/08 03:18:27;;;;;;;13.30;9.67;;;12.80;99.90;;;;;;5075828;28;20647;-86
2022/05/08 03:20:57;;;;;;;12.73;9.13;;;12.80;99.90;;;;;;5075755;28;20640;-87
2022/05/08 03:23:26;;;;;;;11.10;9.67;;;12.70;99.90;;;;;;5075869;28;20579;-85
2022/05/08 03:25:54;;;;;;;12.50;9.50;;;12.70;99.90;;;;;;5074725;28;20660;-86
2022/05/08 03:28:24;;;;;;;14.63;9.13;;;12.70;99.90;;;;;;5075835;28;20196;-86
2022/05/08 03:30:53;;;;;;;11.23;9.23;;;12.70;99.90;;;;;;5075610;28;20649;-86
2022/05/08 03:33:23;;;;;;;12.03;9.20;;;12.80;99.90;;;;;;5075495;28;20210;-85
2022/05/08 03:35:50;;;;;;;10.60;9.17;;;12.70;99.90;;;;;;5075459;28;20216;-86
2022/05/08 03:38:19;;;;;;;11.10;9.27;;;12.60;99.90;;;;;;5075415;28;20204;-86
2022/05/08 03:40:48;;;;;;;14.93;9.40;;;12.70;99.90;;;;;;5074924;28;20188;-87
2022/05/08 03:43:15;;;;;;;9.30;8.13;;;12.60;99.90;;;;;;5074511;28;20227;-86
2022/05/08 03:45:45;;;;;;;10.83;8.47;;;12.60;99.90;;;;;;5074955;28;20203;-86
2022/05/08 03:48:12;;;;;;;13.77;8.67;;;12.50;99.90;;;;;;5075074;28;20684;-86
2022/05/08 03:50:42;;;;;;;16.38;8.93;;;12.50;99.90;;;;;;5074990;28;20434;-86
2022/05/08 03:53:09;;;;;;;11.90;8.50;;;12.50;99.90;;;;;;5074926;28;20672;-84
2022/05/08 03:55:39;;;;;;;13.67;7.90;;;12.50;99.90;;;;;;5074943;28;20213;-85
2022/05/08 03:58:09;;;;;;;12.87;8.53;;;12.60;99.90;;;;;;5075059;28;20191;-86
2022/05/08 04:00:37;;;;;;;15.40;8.97;;;12.60;99.90;;;;;;5074490;28;20224;-86
2022/05/08 04:03:07;;;;;;;13.00;8.37;;;12.80;99.90;;;;;;5074759;28;20228;-85
2022/05/08 04:05:35;;;;;;;11.67;7.27;;;13.00;99.90;;;;;;5074761;28;20206;-86
2022/05/08 04:08:01;;;;;;;8.90;7.50;;;13.00;99.90;;;;;;5074497;28;20209;-85
2022/05/08 04:10:28;;;;;;;10.10;7.83;;;13.00;99.90;;;;;;5074855;28;20201;-86
2022/05/08 04:13:02;;;;;;;11.60;7.97;;;13.00;99.90;;;;;;5074855;28;20204;-87
2022/05/08 04:18:16;;;;;;;12.27;8.03;;;12.70;99.90;;;;;;5074632;28;20254;-84
2022/05/08 04:20:42;;;;;;;11.63;7.47;;;12.70;99.90;;;;;;5074507;28;20197;-87
2022/05/08 04:25:55;;;;;;;8.03;7.27;;;12.70;99.90;;;;;;5074559;28;20214;-87
2022/05/08 04:28:26;;;;;;;8.60;7.37;;;12.70;99.90;;;;;;5074441;28;20195;-85
2022/05/08 04:30:54;;;;;;;9.00;7.43;;;12.70;99.90;;;;;;5074333;28;20199;-87
2022/05/08 04:33:22;;;;;;;10.53;7.17;;;12.70;99.90;;;;;;5074208;28;20652;-86
2022/05/08 04:35:55;;;;;;;7.87;6.73;;;12.80;99.90;;;;;;5074717;28;20202;-87
2022/05/08 04:38:21;;;;;;;10.60;7.33;;;12.70;99.90;;;;;;5073970;28;20208;-85
2022/05/08 04:40:54;;;;;;;9.57;7.60;;;12.70;99.90;;;;;;5074135;28;20206;-84
2022/05/08 04:43:21;;;;;;;9.57;6.90;;;12.70;99.90;;;;;;5073841;28;20227;-85
2022/05/08 04:45:55;;;;;;;7.80;7.00;;;12.60;99.90;;;;;;5073993;28;20294;-86
2022/05/08 04:48:24;;;;;;;11.47;7.63;;;12.70;99.90;;;;;;5074233;28;20197;-85
2022/05/08 04:50:56;;;;;;;8.63;7.83;;;12.80;99.90;;;;;;5074012;28;20612;-85
2022/05/08 04:53:25;;;;;;;12.73;8.30;;;12.80;99.90;;;;;;5073141;28;20270;-85
2022/05/08 04:55:52;;;;;;;9.83;8.00;;;12.80;99.90;;;;;;5074139;28;20652;-85
2022/05/08 04:58:21;;;;;;;11.33;7.87;;;12.60;99.90;;;;;;5074731;28;20209;-86
2022/05/08 05:00:48;;;;;;;10.80;8.17;;;12.50;99.90;;;;;;5079147;28;20331;-87
2022/05/08 05:03:17;;;;;;;10.17;7.90;;;12.70;99.90;;;;;;5094005;28;20238;-86
2022/05/08 05:05:50;;;;;;;11.73;9.23;;;12.60;99.90;;;;;;5091373;28;20477;-86
2022/05/08 05:08:25;;;;;;;12.20;8.60;;;12.80;99.90;;;;;;5094101;28;20211;-85
2022/05/08 05:10:53;;;;;;;13.70;8.27;;;12.80;99.90;;;;;;5093976;28;20196;-86
2022/05/08 05:13:22;;;;;;;9.60;8.00;;;12.80;99.90;;;;;;5093519;28;20706;-87
2022/05/08 05:15:49;;;;;;;10.97;8.53;;;12.60;99.90;;;;;;5093905;28;20204;-87
2022/05/08 05:18:23;;;;;;;12.93;8.53;;;12.70;99.90;;;;;;5094239;28;20196;-86
2022/05/08 05:20:51;;;;;;;8.60;7.80;;;12.70;99.90;;;;;;5094053;28;20194;-87
2022/05/08 05:23:17;;;;;;;12.33;8.90;;;12.60;99.90;;;;;;5094052;28;20222;-86
2022/05/08 05:25:44;;;;;;;13.33;8.33;;;12.70;99.90;;;;;;5094044;28;20199;-86
2022/05/08 05:28:12;;;;;;;12.20;10.00;;;12.60;99.90;;;;;;5093797;28;20445;-87
2022/05/08 05:30:39;;;;;;;11.27;8.07;;;12.70;99.90;;;;;;5093992;28;20203;-85
2022/05/08 05:33:07;;;;;;;9.93;8.93;;;12.80;99.90;;;;;;5093629;28;20642;-86
2022/05/08 05:35:38;;;;;;;11.37;8.77;;;12.80;99.90;;;;;;5093583;28;20713;-85
2022/05/08 05:38:05;;;;;;;10.03;8.53;;;12.80;99.90;;;;;;5093582;28;20536;-86
2022/05/08 05:40:33;;;;;;;12.33;8.53;;;12.90;99.90;;;;;;5093727;28;20214;-86
2022/05/08 05:42:59;;;;;;;10.37;8.57;;;12.90;99.90;;;;;;5093901;28;20197;-86
2022/05/08 05:45:27;;;;;;;11.63;8.80;;;12.80;99.90;;;;;;5093904;28;20199;-85
2022/05/08 05:47:59;;;;;;;11.93;9.47;;;12.90;99.90;;;;;;5093492;28;20198;-86
2022/05/08 05:50:27;;;;;;;9.70;8.67;;;13.00;99.90;;;;;;5092132;28;20214;-86
2022/05/08 05:52:56;;;;;;;10.67;9.10;;;13.00;99.90;;;;;;5093832;28;20202;-87
2022/05/08 05:55:24;;;;;;;11.87;9.27;;;13.10;99.90;;;;;;5093905;28;20202;-86
2022/05/08 05:57:54;;;;;;;13.00;9.73;;;12.80;99.90;;;;;;5093961;28;20389;-85
2022/05/08 06:00:23;;;;;;;10.50;8.70;;;12.80;99.90;;;;;;5093607;28;20227;-85
2022/05/08 06:02:51;;;;;;;12.90;8.60;;;12.90;99.90;;;;;;5093433;28;20206;-86
2022/05/08 06:05:18;;;;;;;12.07;9.73;;;12.90;99.90;;;;;;5094021;28;20234;-85
2022/05/08 06:07:45;;;;;;;12.80;9.77;;;13.00;99.90;;;;;;5097379;28;20659;-85
2022/05/08 06:10:15;;;;;;;15.07;9.80;;;13.00;99.90;;;;;;5096590;28;20206;-86
2022/05/08 06:12:42;;;;;;;13.40;9.70;;;13.00;99.90;;;;;;5097209;28;20248;-85
2022/05/08 06:15:10;;;;;;;13.47;9.20;;;12.80;99.90;;;;;;5097312;28;20212;-86
2022/05/08 06:17:39;;;;;;;15.35;10.88;;;12.80;99.90;;;;;;5096576;28;20434;-86
2022/05/08 06:20:09;;;;;;;14.57;9.87;;;13.00;99.90;;;;;;5096943;28;20199;-85
2022/05/08 06:22:37;;;;;;;10.73;8.93;;;13.10;99.90;;;;;;5096944;28;20681;-86
2022/05/08 06:25:06;;;;;;;13.80;9.47;;;13.30;99.90;;;;;;5096689;28;20330;-85
2022/05/08 06:27:36;;;;;;;12.13;9.47;;;13.20;99.90;;;;;;5096845;28;20199;-86
2022/05/08 06:30:14;;;;;;;10.80;9.20;;;13.10;99.90;;;;;;5097197;28;20207;-86
2022/05/08 06:32:40;;;;;;;13.17;10.47;;;13.20;99.90;;;;;;5096738;28;20212;-86
2022/05/08 06:35:09;;;;;;;13.60;10.23;;;13.20;99.90;;;;;;5096941;28;20208;-84
2022/05/08 06:37:36;;;;;;;10.03;8.30;;;13.10;99.90;;;;;;5096018;28;20210;-84
2022/05/08 06:40:04;;;;;;;17.53;9.57;;;13.10;99.90;;;;;;5096028;28;20218;-85
2022/05/08 06:42:32;;;;;;;16.03;9.17;;;13.20;99.90;;;;;;5095943;28;20207;-84
2022/05/08 06:45:00;;;;;;;11.70;8.97;;;13.40;99.90;;;;;;5095727;28;20232;-84
2022/05/08 06:47:27;;;;;;;15.07;9.60;;;13.30;99.90;;;;;;5095596;28;20205;-84
2022/05/08 06:49:54;;;;;;;17.27;9.30;;;13.30;99.90;;;;;;5095714;28;20678;-83
2022/05/08 06:52:23;;;;;;;13.87;9.80;;;13.40;99.90;;;;;;5096060;28;20201;-84
2022/05/08 06:54:50;;;;;;;14.70;9.60;;;13.50;99.90;;;;;;5095663;28;20205;-83
2022/05/08 06:57:17;;;;;;;16.13;9.30;;;13.50;99.90;;;;;;5095861;28;20203;-84
2022/05/08 07:02:32;;;;;;;9.73;8.03;;;13.60;99.90;;;;;;5095743;28;20204;-84
2022/05/08 07:04:59;;;;;;;9.43;7.30;;;13.60;99.90;;;;;;5095496;28;20231;-83
2022/05/08 07:07:27;;;;;;;16.05;9.52;;;13.80;99.90;;;;;;5094952;28;20433;-85
2022/05/08 07:09:55;;;;;;;13.37;8.00;;;13.70;99.90;;;;;;5095512;28;20197;-85
2022/05/08 07:12:24;;;;;;;11.33;8.63;;;13.70;99.90;;;;;;5095599;28;20561;-85
2022/05/08 07:14:54;;;;;;;10.77;8.00;;;13.80;99.90;;;;;;5095882;28;20637;-85
2022/05/08 07:17:24;;;;;;;13.37;7.70;;;14.00;99.90;;;;;;5094548;28;20559;-85
2022/05/08 07:19:52;;;;;;;15.90;7.80;;;13.80;99.90;;;;;;5095633;28;20254;-84
2022/05/08 07:22:19;;;;;;;11.57;7.23;;;13.70;99.90;;;;;;5095208;28;20204;-86
2022/05/08 07:24:46;;;;;;;11.63;7.83;;;13.80;99.90;;;;;;5095043;28;20585;-84
2022/05/08 07:27:12;;;;;;;13.70;7.60;;;14.00;99.90;;;;;;5095079;28;20221;-84
2022/05/08 07:29:42;;;;;;;10.43;6.67;;;14.10;99.90;;;;;;5095146;28;20562;-84
2022/05/08 07:32:09;;;;;;;13.10;7.30;;;14.30;99.90;;;;;;5093954;28;20429;-85
2022/05/08 07:37:22;;;;;;;16.63;6.97;;;14.00;99.90;;;;;;5094855;28;20607;-85
2022/05/08 07:39:48;;;;;;;13.13;6.47;;;14.00;99.90;;;;;;5094837;28;20205;-85
2022/05/08 07:42:15;;;;;;;11.73;6.40;;;14.00;99.90;;;;;;5094835;28;20200;-85
2022/05/08 07:44:42;;;;;;;15.03;6.47;;;14.10;99.90;;;;;;5094576;28;20608;-85
2022/05/08 07:47:09;;;;;;;13.73;7.07;;;14.20;99.90;;;;;;5094298;28;20575;-83
2022/05/08 07:49:35;;;;;;;10.67;6.13;;;14.20;99.90;;;;;;5095156;28;20292;-84
2022/05/08 07:52:05;;;;;;;15.27;7.37;;;14.20;99.90;;;;;;5094667;28;20303;-84
2022/05/08 07:54:33;;;;;;;12.37;6.97;;;14.30;99.90;;;;;;5095140;27;20283;-83
2022/05/08 07:57:00;;;;;;;9.13;5.53;;;14.20;99.90;;;;;;5094585;28;20208;-85
2022/05/08 07:59:26;;;;;;;10.57;5.53;;;14.50;99.90;;;;;;5094779;28;20208;-85
2022/05/08 08:01:53;;;;;;;8.40;5.63;;;14.60;99.90;;;;;;5094321;28;20208;-85
2022/05/08 08:04:20;;;;;;;8.57;5.20;;;14.50;99.90;;;;;;5094599;28;20247;-86
2022/05/08 08:06:47;;;;;;;12.63;5.17;;;14.60;99.90;;;;;;5093023;28;20207;-85
2022/05/08 08:09:14;;;;;;;8.87;5.43;;;14.70;99.90;;;;;;5094242;28;20637;-85
2022/05/08 08:11:43;;;;;;;9.93;4.80;;;15.00;99.90;;;;;;5093858;28;20201;-84
2022/05/08 08:14:09;;;;;;;7.00;4.23;;;15.00;99.90;;;;;;5094396;28;20205;-85
2022/05/08 08:16:36;;;;;;;9.03;5.00;;;15.10;99.90;;;;;;5093702;28;20663;-85
2022/05/08 08:19:03;;;;;;;15.13;6.30;;;14.90;99.90;;;;;;5094009;28;20209;-85
2022/05/08 08:21:31;;;;;;;12.40;5.00;;;15.20;99.90;;;;;;5094213;28;20209;-84
2022/05/08 08:23:58;;;;;;;8.77;4.57;;;15.20;99.90;;;;;;5094202;28;20690;-84
2022/05/08 08:26:25;;;;;;;8.67;4.30;;;15.10;99.90;;;;;;5093963;28;20198;-84
2022/05/08 08:28:53;;;;;;;10.60;4.17;;;15.20;99.90;;;;;;5094005;28;20194;-85
2022/05/08 08:31:20;;;;;;;10.17;4.60;;;15.20;99.90;;;;;;5093885;28;20205;-85
2022/05/08 08:33:48;;;;;;;11.90;4.60;;;15.30;99.90;;;;;;5094122;28;20204;-83
2022/05/08 08:36:15;;;;;;;7.10;2.93;;;15.20;99.90;;;;;;5094071;28;20209;-85
2022/05/08 08:38:42;;;;;;;6.20;3.03;;;15.10;99.90;;;;;;5093834;28;20208;-85
2022/05/08 08:41:09;;;;;;;9.77;4.13;;;15.40;99.90;;;;;;5093897;28;20225;-84
2022/05/08 08:49:06;;;;;;;11.60;4.50;;;15.70;99.90;;;;;;5094125;28;20213;-85
2022/05/08 08:51:34;;;;;;;10.07;4.20;;;15.70;99.90;;;;;;5093557;28;20186;-85
2022/05/08 08:54:01;;;;;;;4.90;2.87;;;15.70;99.90;;;;;;5093912;28;20194;-85
2022/05/08 08:56:28;;;;;;;10.10;4.30;;;15.50;99.90;;;;;;5094031;28;20198;-86
2022/05/08 08:58:54;;;;;;;8.43;4.00;;;15.60;99.90;;;;;;5093634;28;20207;-85
2022/05/08 09:01:23;;;;;;;6.00;2.93;;;15.80;99.90;;;;;;5093704;28;20229;-85
2022/05/08 09:03:49;;;;;;;6.50;3.10;;;16.10;99.90;;;;;;5092071;28;20202;-85
2022/05/08 09:06:16;;;;;;;11.53;3.50;;;16.10;99.90;;;;;;5093034;28;20689;-85
2022/05/08 09:08:43;;;;;;;10.18;3.42;;;16.20;99.90;;;;;;5093532;28;20418;-84
2022/05/08 09:11:10;;;;;;;10.13;4.03;;;16.40;99.90;;;;;;5093639;28;20591;-85
2022/05/08 09:13:49;;;;;;;8.43;3.50;;;16.30;99.90;;;;;;5084770;28;20205;-85
2022/05/08 09:16:16;;;;;;;10.43;4.37;;;16.40;99.90;;;;;;5083236;28;20552;-85
2022/05/08 09:18:45;;;;;;;13.07;4.00;;;16.40;99.90;;;;;;5087421;28;20203;-85
2022/05/08 09:24:08;;;;;;;8.93;4.30;;;16.50;99.90;;;;;;5093350;28;20207;-85
2022/05/08 09:26:36;;;;;;;11.77;4.20;;;16.60;99.90;;;;;;5093253;28;20200;-84
2022/05/08 09:29:04;;;;;;;8.63;3.50;;;16.60;99.90;;;;;;5093204;28;20200;-84
2022/05/08 09:31:39;;;;;;;10.93;3.77;;;16.80;99.90;;;;;;5093852;28;20199;-85
2022/05/08 09:34:07;;;;;;;9.90;4.00;;;16.90;99.90;;;;;;5093441;28;20262;-83
2022/05/08 09:36:35;;;;;;;12.90;3.83;;;17.10;99.90;;;;;;5093375;28;20230;-84
2022/05/08 09:39:02;;;;;;;10.00;4.10;;;16.90;99.90;;;;;;5093110;28;20205;-85
2022/05/08 09:41:31;;;;;;;8.20;3.80;;;17.10;99.90;;;;;;5096095;28;20200;-85
2022/05/08 09:44:10;;;;;;;10.70;4.07;;;17.40;99.90;;;;;;5097491;28;20220;-85
2022/05/08 09:46:38;;;;;;;6.50;3.20;;;17.20;99.90;;;;;;5097320;28;20201;-86
2022/05/08 09:49:08;;;;;;;11.73;3.70;;;17.40;99.90;;;;;;5097601;28;20190;-85
2022/05/08 09:51:35;;;;;;;8.97;3.43;;;17.20;99.90;;;;;;5097550;28;20556;-85
2022/05/08 09:54:02;;;;;;;11.20;4.17;;;17.30;99.90;;;;;;5097161;28;20306;-85
2022/05/08 09:56:35;;;;;;;7.10;3.17;;;17.30;99.90;;;;;;5096994;28;20205;-85
2022/05/08 09:59:07;;;;;;;9.20;3.90;;;17.50;99.90;;;;;;5096957;28;20471;-85
2022/05/08 10:01:34;;;;;;;7.80;3.27;;;17.50;99.90;;;;;;5097528;28;20233;-84
2022/05/08 10:04:04;;;;;;;6.23;2.80;;;17.50;99.90;;;;;;5097214;28;20569;-86
2022/05/08 10:06:36;;;;;;;7.30;3.40;;;17.40;99.90;;;;;;5097237;28;20239;-85
2022/05/08 10:14:34;;;;;;;6.27;2.60;;;17.70;99.90;;;;;;5096737;28;20278;-85
2022/05/08 10:17:05;;;;;;;12.50;3.30;;;17.60;99.90;;;;;;5096477;28;20257;-83
2022/05/08 10:19:53;;;;;;;8.97;3.07;;;17.60;99.90;;;;;;5096922;28;20197;-82
2022/05/08 10:22:24;;;;;;;10.93;3.13;;;17.80;99.90;;;;;;5096887;28;20352;-85
2022/05/08 10:24:57;;;;;;;9.77;2.80;;;17.80;99.90;;;;;;5095430;28;20225;-84
2022/05/08 10:27:29;;;;;;;12.20;3.67;;;17.90;99.90;;;;;;5093609;28;20228;-84
2022/05/08 10:30:32;;;;;;;10.43;3.10;;;17.70;99.90;;;;;;5096663;28;20196;-84
2022/05/08 10:32:59;;;;;;;9.30;2.67;;;17.90;99.90;;;;;;5096304;28;20200;-83
2022/05/08 10:35:32;;;;;;;6.87;2.73;;;18.00;99.90;;;;;;5096295;28;20201;-84
2022/05/08 10:38:24;;;;;;;10.10;2.67;;;18.00;99.90;;;;;;5096087;28;20208;-84
2022/05/08 10:40:55;;;;;;;6.93;2.63;;;18.10;99.90;;;;;;5080907;28;20243;-84
2022/05/08 10:43:28;;;;;;;5.67;2.77;;;18.30;99.90;;;;;;5096131;28;20209;-84
2022/05/08 10:45:56;;;;;;;6.43;2.60;;;18.40;99.90;;;;;;5095656;28;20643;-87
2022/05/08 10:48:28;;;;;;;8.73;2.60;;;18.50;99.90;;;;;;5096150;28;20207;-85
2022/05/08 10:50:57;;;;;;;8.27;3.00;;;18.50;99.90;;;;;;5095626;28;20200;-85
2022/05/08 10:53:30;;;;;;;8.73;2.57;;;18.60;98.90;;;;;;5095458;28;20196;-83
2022/05/08 10:56:02;;;;;;;7.27;2.80;;;18.20;98.40;;;;;;5096018;28;20195;-86
2022/05/08 10:58:29;;;;;;;10.10;3.23;;;18.30;98.80;;;;;;5096293;28;20215;-84
2022/05/08 11:00:57;;;;;;;10.13;3.63;;;18.40;99.60;;;;;;5094772;28;20223;-87
2022/05/08 11:03:25;;;;;;;8.93;3.43;;;18.20;99.90;;;;;;5096077;28;20275;-83
2022/05/08 11:05:52;;;;;;;8.10;3.23;;;18.30;99.90;;;;;;5094487;28;20226;-84
2022/05/08 11:08:25;;;;;;;11.90;3.00;;;18.60;99.40;;;;;;5094778;28;20258;-86
2022/05/08 11:11:07;;;;;;;10.93;3.20;;;18.70;98.60;;;;;;5086085;28;20205;-91
2022/05/08 11:13:45;;;;;;;9.70;3.65;;;18.90;98.30;;;;;;5084484;28;20434;-90
2022/05/08 11:16:13;;;;;;;9.80;3.40;;;18.80;98.70;;;;;;5093471;28;20204;-90
2022/05/08 11:18:40;;;;;;;9.40;3.23;;;18.70;98.20;;;;;;5096537;28;20189;-90
2022/05/08 11:21:09;;;;;;;7.13;3.80;;;18.50;98.40;;;;;;5096555;28;20293;-90
2022/05/08 11:23:40;;;;;;;7.33;3.20;;;18.80;98.30;;;;;;5096982;28;20200;-88
2022/05/08 11:26:10;;;;;;;7.13;2.47;;;18.90;97.90;;;;;;5096249;28;20245;-88
2022/05/08 11:28:48;;;;;;;8.23;2.77;;;18.90;97.20;;;;;;5098716;28;20212;-88
2022/05/08 11:31:16;;;;;;;6.13;2.43;;;18.90;96.40;;;;;;5107655;28;20709;-87
2022/05/08 11:36:30;;;;;;;7.87;2.50;;;19.10;96.00;;;;;;5098431;28;20193;-85
2022/05/08 11:38:58;;;;;;;6.90;2.50;;;19.10;95.70;;;;;;5086183;28;20230;-87
2022/05/08 11:41:29;;;;;;;6.20;2.77;;;19.00;95.70;;;;;;5084395;28;20189;-91
2022/05/08 11:43:57;;;;;;;5.87;1.97;;;19.00;95.20;;;;;;5086512;28;20214;-89
2022/05/08 11:46:35;;;;;;;5.67;2.10;;;18.90;95.10;;;;;;5092107;28;20239;-90
2022/05/08 11:49:12;;;;;;;6.13;1.87;;;18.80;95.70;;;;;;5097234;28;20209;-92
2022/05/08 11:51:43;;;;;;;9.50;2.80;;;19.10;96.10;;;;;;5098453;28;20670;-90
2022/05/08 11:54:28;;;;;;;7.30;2.90;;;19.40;95.90;;;;;;5096692;28;20216;-90
2022/05/08 11:57:14;;;;;;;4.03;2.13;;;19.40;95.00;;;;;;5094833;28;20212;-86
2022/05/08 11:59:43;;;;;;;5.10;2.30;;;19.30;94.70;;;;;;5094944;28;20200;-87
2022/05/08 12:02:11;;;;;;;5.50;2.40;;;19.40;94.50;;;;;;5094116;28;20209;-93
2022/05/08 12:04:38;;;;;;;8.47;2.50;;;19.60;94.80;;;;;;5094100;28;20622;-85
2022/05/08 12:07:07;;;;;;;5.77;1.80;;;19.70;94.70;;;;;;5094250;28;20231;-85
2022/05/08 12:09:36;;;;;;;5.73;1.97;;;19.70;94.40;;;;;;5094534;28;20224;-85
2022/05/08 12:12:35;;;;;;;7.53;1.97;;;19.70;93.50;;;;;;5094411;28;20632;-86
2022/05/08 12:15:17;;;;;;;4.00;1.93;;;19.80;94.30;;;;;;5032139;28;20207;-86
2022/05/08 12:17:58;;;;;;;9.33;2.50;;;19.70;94.10;;;;;;5087611;28;20232;-85
2022/05/08 12:20:33;;;;;;;6.57;2.57;;;19.60;94.40;;;;;;5096016;28;20201;-85
2022/05/08 12:23:01;;;;;;;5.27;2.07;;;19.50;94.70;;;;;;5094095;28;20213;-86
2022/05/08 12:25:29;;;;;;;6.15;2.08;;;19.40;94.10;;;;;;5094116;28;20445;-87
2022/05/08 12:27:57;;;;;;;5.00;2.00;;;19.40;94.10;;;;;;5094463;28;20645;-86
2022/05/08 12:30:25;;;;;;;8.97;2.30;;;19.40;94.40;;;;;;5094788;28;20193;-87
2022/05/08 12:32:52;;;;;;;5.87;2.00;;;19.50;94.70;;;;;;5094598;28;20200;-87
2022/05/08 12:35:19;;;;;;;9.03;2.43;;;19.70;94.80;;;;;;5094257;28;20201;-86
2022/05/08 12:37:47;;;;;;;4.80;2.13;;;19.90;94.30;;;;;;5094416;28;20227;-86
2022/05/08 12:40:15;;;;;;;4.40;2.13;;;20.20;94.40;;;;;;5090905;28;20284;-85
2022/05/08 12:42:43;;;;;;;6.27;2.23;;;20.10;94.00;;;;;;5094438;28;20197;-87
2022/05/08 12:45:13;;;;;;;10.60;2.67;;;20.00;94.20;;;;;;5094181;28;20235;-85
2022/05/08 12:47:39;;;;;;;5.50;2.30;;;20.10;94.10;;;;;;5095431;28;20203;-85
2022/05/08 12:50:07;;;;;;;5.90;2.28;;;19.80;94.00;;;;;;5094081;28;20438;-87
2022/05/08 12:52:35;;;;;;;3.93;2.10;;;20.10;94.30;;;;;;5094042;28;20193;-87
2022/05/08 12:55:02;;;;;;;7.23;2.23;;;20.00;94.20;;;;;;5094171;28;20606;-86
2022/05/08 13:00:17;;;;;;;6.63;2.40;;;20.10;93.80;;;;;;5093864;28;20215;-87
2022/05/08 13:02:43;;;;;;;3.23;1.80;;;20.20;94.10;;;;;;5093996;28;20219;-86
2022/05/08 13:05:10;;;;;;;7.33;2.37;;;20.40;93.90;;;;;;5093317;28;20659;-86
2022/05/08 13:07:37;;;;;;;6.40;2.20;;;20.40;93.60;;;;;;5093831;28;20212;-86
2022/05/08 13:10:04;;;;;;;4.90;1.73;;;20.30;93.20;;;;;;5093232;28;20229;-85
2022/05/08 13:12:31;;;;;;;4.17;2.37;;;20.40;92.60;;;;;;5093376;28;20205;-87
2022/05/08 13:14:58;;;;;;;3.80;1.83;;;20.50;92.80;;;;;;5092486;28;20201;-86
2022/05/08 13:17:26;;;;;;;2.80;1.67;;;20.60;92.60;;;;;;5093417;28;20680;-85
2022/05/08 13:19:53;;;;;;;4.17;1.70;;;20.30;92.50;;;;;;5093283;28;20193;-86
2022/05/08 13:22:20;;;;;;;3.53;1.63;;;20.50;92.40;;;;;;5093292;28;20194;-87
2022/05/08 13:24:47;;;;;;;5.50;1.80;;;20.60;92.20;;;;;;5093525;28;20229;-87